Arklow Spray — C6VK8 — position and weather

sailwx.info

Track history (hours):
 
Tides and Currents Weather Stations Pressure Air Temp Water Temp Dewpoint Dewpoint Depression Visibility Wind Speed Wind Dir Waves Ship Positions

Arklow Spray

Last reported at 2018-Feb-19 07:26 UTC. Time now 2018-Feb-19 08:15 UTC.
Position N 54°37' W 005°54'.

Length 90 m; draft 4.5 m.

MMSI: 309914000.

Date/timePositionNaut miles runAvg speedWind from/ knotsBaromVisibWave heightAir tempDewpointWater temp
2018-Feb-19 07:26N 54°37' W 005°54'1 2.5
2018-Feb-19 06:59N 54°38' W 005°53'4 8.5
2018-Feb-19 06:30N 54°41' W 005°49'5 9.3
2018-Feb-19 06:00N 54°43' W 005°41'5 9.3
2018-Feb-19 05:30N 54°43' W 005°33'4 8.9
2018-Feb-19 05:00N 54°41' W 005°26'510.3
2018-Feb-19 04:30N 54°37' W 005°23'611.0
2018-Feb-19 04:00N 54°31' W 005°21'510.8
2018-Feb-19 03:30N 54°26' W 005°18'510.2
2018-Feb-19 03:00N 54°21' W 005°19'510.2
2018-Feb-19 02:30N 54°16' W 005°20'6610.0
2018-Feb-18 19:59N 53°11' W 005°33'810.3
2018-Feb-18 19:12N 53°03' W 005°34'2 9.2
2018-Feb-18 19:00N 53°01' W 005°34'5 9.3
2018-Feb-18 18:30N 52°56' W 005°35'5 8.9
2018-Feb-18 17:58N 52°52' W 005°36'4 8.1
2018-Feb-18 17:29N 52°48' W 005°37'4 7.4
2018-Feb-18 16:57N 52°44' W 005°38'127 9.4
2018-Feb-18 03:24N 50°37' W 005°52'410.1
2018-Feb-18 03:00N 50°33' W 005°52'510.1
2018-Feb-18 02:29N 50°28' W 005°52'56 6.7
2018-Feb-17 18:11N 49°59' W 004°38'2 8.2
2018-Feb-17 17:55N 49°60' W 004°35'3 8.4
2018-Feb-17 17:30N 49°60' W 004°29'5 8.6
2018-Feb-17 16:55N 50°01' W 004°22'2810.2
2018-Feb-17 14:13N 50°06' W 003°39'211.7
2018-Feb-17 14:00N 50°06' W 003°35'611.5
2018-Feb-17 13:30N 50°07' W 003°27'611.3
2018-Feb-17 13:00N 50°09' W 003°18'510.8
2018-Feb-17 12:30N 50°10' W 003°10'510.3
2018-Feb-17 12:00N 50°11' W 003°02'5 9.8
2018-Feb-17 11:30N 50°11' W 002°54'5 9.2
2018-Feb-17 11:00N 50°12' W 002°47'102 9.9
2018-Feb-17 00:45N 50°31' W 000°10'310.7
2018-Feb-17 00:30N 50°32' W 000°06'510.2
2018-Feb-17 00:00N 50°33' E 000°01'5 9.7
2018-Feb-16 23:30N 50°34' E 000°09'5 9.2
2018-Feb-16 23:00N 50°35' E 000°16'4 8.6
2018-Feb-16 22:30N 50°36' E 000°22'4 8.3
2018-Feb-16 22:00N 50°38' E 000°29'4 8.4
2018-Feb-16 21:30N 50°39' E 000°35'4 9.0
2018-Feb-16 21:00N 50°42' E 000°41'5 9.7
2018-Feb-16 20:30N 50°44' E 000°47'3211.9
2018-Feb-16 17:48N 51°05' E 001°27'3 9.6
2018-Feb-16 17:30N 51°06' E 001°31'510.9
2018-Feb-16 17:00N 51°10' E 001°37'510.2
2018-Feb-16 16:30N 51°13' E 001°43'5 9.7
2018-Feb-16 16:00N 51°17' E 001°48'4 9.0
2018-Feb-16 15:30N 51°20' E 001°52'4 8.7
2018-Feb-16 15:00N 51°24' E 001°56'4 8.4
2018-Feb-16 14:30N 51°27' E 002°00'4 8.3
2018-Feb-16 14:00N 51°30' E 002°05'4 8.5
2018-Feb-16 13:31N 51°34' E 002°09'5 8.7
2018-Feb-16 12:59N 51°37' E 002°14'6810.1
2018-Feb-16 06:15N 52°21' E 003°39'2 9.2
2018-Feb-16 05:59N 52°22' E 003°43'5 8.9
2018-Feb-16 05:26N 52°24' E 003°50'5 8.6
2018-Feb-16 04:53N 52°24' E 003°58'3 8.5
2018-Feb-16 04:29N 52°25' E 004°03'4 8.4
2018-Feb-16 04:00N 52°26' E 004°10'4 8.2
2018-Feb-16 03:30N 52°27' E 004°16'4 8.0
2018-Feb-16 03:00N 52°28' E 004°23'4 8.4
2018-Feb-16 02:31N 52°28' E 004°30'4 7.8
2018-Feb-16 02:01N 52°28' E 004°36'1 1.4
2018-Feb-16 01:30N 52°28' E 004°37'4 8.5
2018-Feb-16 01:01N 52°26' E 004°43'5 9.9
2018-Feb-16 00:31N 52°25' E 004°51'1 1.5
2018-Feb-15 23:59N 52°24' E 004°51'0 0.0
2018-Feb-15 23:29N 52°24' E 004°51'0 0.0
2018-Feb-15 22:59N 52°24' E 004°51'0 0.0
2018-Feb-15 22:29N 52°24' E 004°51'0 0.0
2018-Feb-15 21:56N 52°24' E 004°51'0 0.0
2018-Feb-15 21:29N 52°24' E 004°51'0 0.0
2018-Feb-15 20:59N 52°24' E 004°51'0 0.0
2018-Feb-15 20:29N 52°24' E 004°51'0 0.0
2018-Feb-15 19:59N 52°24' E 004°51'0 0.0
2018-Feb-15 19:29N 52°24' E 004°51'0 0.3
2018-Feb-15 18:59N 52°24' E 004°51'0 0.0
2018-Feb-15 18:29N 52°24' E 004°51'0 0.0
2018-Feb-15 17:59N 52°24' E 004°51'0 0.0
2018-Feb-15 17:29N 52°24' E 004°51'0 0.0
2018-Feb-15 16:59N 52°24' E 004°51'0 0.0
2018-Feb-15 16:29N 52°24' E 004°51'0 0.0
2018-Feb-15 15:59N 52°24' E 004°51'0 0.0
2018-Feb-15 15:29N 52°24' E 004°51'0 0.0
2018-Feb-15 14:59N 52°24' E 004°51'0 0.7
2018-Feb-15 14:28N 52°24' E 004°52'0 0.0
2018-Feb-15 13:58N 52°24' E 004°52'0 0.0
2018-Feb-15 13:28N 52°24' E 004°52'0 0.0
2018-Feb-15 12:58N 52°24' E 004°52'0 0.0
2018-Feb-15 12:28N 52°24' E 004°52'0 0.0
2018-Feb-15 11:58N 52°24' E 004°52'0 0.0
2018-Feb-15 11:28N 52°24' E 004°52'0 0.0
2018-Feb-15 10:58N 52°24' E 004°52'0 0.0
2018-Feb-15 10:28N 52°24' E 004°52'0 0.0
2018-Feb-15 09:58N 52°24' E 004°52'0 0.0
2018-Feb-15 09:28N 52°24' E 004°52'0 0.0
2018-Feb-15 08:58N 52°24' E 004°52'0 0.0
2018-Feb-15 08:25N 52°24' E 004°52'0 0.0
2018-Feb-15 07:58N 52°24' E 004°52'0 0.0
2018-Feb-15 07:28N 52°24' E 004°52'0 0.0
2018-Feb-15 06:58N 52°24' E 004°52'0 0.0
2018-Feb-15 06:28N 52°24' E 004°52'0 0.0
2018-Feb-15 05:58N 52°24' E 004°52'0 0.0
2018-Feb-15 05:28N 52°24' E 004°52'0 0.0
2018-Feb-15 04:58N 52°24' E 004°52'0 0.0
2018-Feb-15 04:28N 52°24' E 004°52'0 0.0
2018-Feb-15 03:58N 52°24' E 004°52'0 0.0
2018-Feb-15 03:28N 52°24' E 004°52'0 0.0
2018-Feb-15 02:58N 52°24' E 004°52'0 0.0
2018-Feb-15 02:28N 52°24' E 004°52'0 0.0
2018-Feb-15 01:58N 52°24' E 004°52'0 0.0
2018-Feb-15 01:28N 52°24' E 004°52'0 0.0
2018-Feb-15 00:58N 52°24' E 004°52'0 0.0
2018-Feb-15 00:28N 52°24' E 004°52'0 0.0
2018-Feb-14 23:58N 52°24' E 004°52'0 0.0
2018-Feb-14 23:28N 52°24' E 004°52'0 0.0
2018-Feb-14 22:58N 52°24' E 004°52'0 0.0
2018-Feb-14 22:28N 52°24' E 004°52'0 0.0
2018-Feb-14 22:00N 52°24' E 004°52'0 0.0
2018-Feb-14 21:29N 52°24' E 004°52'0 0.0
2018-Feb-14 20:59N 52°24' E 004°52'2 3.4
2018-Feb-14 20:30N 52°25' E 004°50'1 1.4
2018-Feb-14 19:58N 52°25' E 004°49'0 0.0
2018-Feb-14 19:28N 52°25' E 004°49'0 0.0
2018-Feb-14 18:58N 52°25' E 004°49'0 0.0
2018-Feb-14 18:28N 52°25' E 004°49'0 0.0
2018-Feb-14 17:55N 52°25' E 004°49'0 0.0
2018-Feb-14 17:28N 52°25' E 004°49'0 0.0
2018-Feb-14 16:58N 52°25' E 004°49'0 0.0
2018-Feb-14 16:28N 52°25' E 004°49'0 0.0
2018-Feb-14 15:55N 52°25' E 004°49'0 0.0
2018-Feb-14 15:28N 52°25' E 004°49'0 0.0
2018-Feb-14 14:58N 52°25' E 004°49'0 0.0
2018-Feb-14 14:28N 52°25' E 004°49'0 0.0
2018-Feb-14 13:58N 52°25' E 004°49'0 0.0
2018-Feb-14 13:28N 52°25' E 004°49'0 0.1
2018-Feb-14 13:00N 52°25' E 004°49'0 0.1
2018-Feb-14 12:27N 52°25' E 004°49'0 0.0
2018-Feb-14 12:00N 52°25' E 004°49'0 0.0
2018-Feb-14 11:30N 52°25' E 004°49'0 0.0
2018-Feb-14 11:00N 52°25' E 004°49'0 0.0
2018-Feb-14 10:30N 52°25' E 004°49'0 0.0
2018-Feb-14 09:54N 52°25' E 004°49'0 0.0
2018-Feb-14 09:30N 52°25' E 004°49'0 0.0
2018-Feb-14 09:00N 52°25' E 004°49'0 0.0
2018-Feb-14 08:27N 52°25' E 004°49'0 0.0
2018-Feb-14 08:00N 52°25' E 004°49'0 0.0
2018-Feb-14 07:30N 52°25' E 004°49'0 0.0
2018-Feb-14 07:00N 52°25' E 004°49'0 0.0
2018-Feb-14 06:27N 52°25' E 004°49'0 0.0
2018-Feb-14 06:00N 52°25' E 004°49'0 0.0
2018-Feb-14 05:27N 52°25' E 004°49'0 0.0
2018-Feb-14 05:00N 52°25' E 004°49'0 0.0
2018-Feb-14 04:27N 52°25' E 004°49'0 0.0
2018-Feb-14 04:00N 52°25' E 004°49'0 0.0
2018-Feb-14 03:27N 52°25' E 004°49'0 0.0
2018-Feb-14 02:57N 52°25' E 004°49'0 0.0
2018-Feb-14 02:29N 52°25' E 004°49'0 0.0
2018-Feb-14 01:58N 52°25' E 004°49'0 0.0
2018-Feb-14 01:28N 52°25' E 004°49'0 0.0
2018-Feb-14 00:58N 52°25' E 004°49'0 0.0
2018-Feb-14 00:28N 52°25' E 004°49'0 0.0
2018-Feb-13 23:58N 52°25' E 004°49'0 0.0
2018-Feb-13 23:28N 52°25' E 004°49'0 0.0
2018-Feb-13 22:58N 52°25' E 004°49'0 0.0
2018-Feb-13 22:28N 52°25' E 004°49'0 0.0
2018-Feb-13 21:58N 52°25' E 004°49'0 0.7
2018-Feb-13 21:30N 52°25' E 004°49'0 0.1
2018-Feb-13 21:01N 52°25' E 004°49'0 0.1
2018-Feb-13 20:30N 52°25' E 004°49'0 0.0
2018-Feb-13 20:00N 52°25' E 004°49'1 2.8
2018-Feb-13 19:30N 52°26' E 004°46'2 4.5
2018-Feb-13 19:00N 52°26' E 004°43'2 4.4
2018-Feb-13 18:30N 52°28' E 004°40'2 4.4
2018-Feb-13 18:00N 52°28' E 004°36'1 1.2
2018-Feb-13 17:30N 52°28' E 004°35'4 7.3
2018-Feb-13 17:01N 52°28' E 004°30'4 8.4
2018-Feb-13 16:30N 52°26' E 004°23'3 5.9
2018-Feb-13 16:01N 52°23' E 004°21'1 1.9
2018-Feb-13 15:31N 52°23' E 004°20'1 2.4
2018-Feb-13 15:01N 52°24' E 004°19'1 1.8
2018-Feb-13 14:31N 52°25' E 004°19'1 1.6
2018-Feb-13 14:00N 52°26' E 004°18'1 1.4
2018-Feb-13 13:31N 52°26' E 004°17'1 1.4
2018-Feb-13 13:01N 52°26' E 004°16'1 1.5
2018-Feb-13 12:30N 52°27' E 004°15'2 4.2
2018-Feb-13 12:00N 52°27' E 004°12'2 4.4
2018-Feb-13 11:29N 52°26' E 004°08'2 4.3
2018-Feb-13 11:00N 52°26' E 004°05'2 3.9
2018-Feb-13 10:30N 52°25' E 004°02'2 3.5
2018-Feb-13 10:00N 52°25' E 003°59'2 3.5
2018-Feb-13 09:31N 52°24' E 003°56'2 3.2
2018-Feb-13 08:57N 52°24' E 003°53'1 3.0
2018-Feb-13 08:29N 52°24' E 003°51'2 3.2
2018-Feb-13 07:55N 52°23' E 003°48'2 3.5
2018-Feb-13 07:23N 52°22' E 003°45'20 8.7
2018-Feb-13 05:07N 52°11' E 003°19'1 9.8
2018-Feb-13 04:59N 52°11' E 003°17'5 9.8
2018-Feb-13 04:30N 52°08' E 003°11'5 9.9
2018-Feb-13 04:00N 52°04' E 003°05'4110.8
2018-Feb-13 00:13N 51°33' E 002°22'311.5
2018-Feb-12 23:59N 51°31' E 002°19'511.2
2018-Feb-12 23:30N 51°27' E 002°14'611.2
2018-Feb-12 23:00N 51°22' E 002°10'611.3
2018-Feb-12 22:30N 51°17' E 002°06'611.6
2018-Feb-12 22:01N 51°13' E 001°60'611.4
2018-Feb-12 21:31N 51°09' E 001°52'611.4
2018-Feb-12 21:00N 51°06' E 001°45'611.1
2018-Feb-12 20:30N 51°02' E 001°39'510.6
2018-Feb-12 20:01N 50°58' E 001°34'610.0
2018-Feb-12 19:24N 50°53' E 001°28'4 9.3
2018-Feb-12 19:00N 50°49' E 001°26'5 8.7
2018-Feb-12 18:29N 50°45' E 001°23'115 9.3
2018-Feb-12 06:06N 50°04' W 001°26'111.6
2018-Feb-12 06:01N 50°03' W 001°27'611.8
2018-Feb-12 05:30N 50°02' W 001°36'611.7
2018-Feb-12 05:00N 50°00' W 001°45'611.4
2018-Feb-12 04:30N 49°59' W 001°53'137 8.7
2018-Feb-11 12:48N 48°48' W 004°54'3 9.5
2018-Feb-11 12:30N 48°47' W 004°57'5 9.3
2018-Feb-11 12:00N 48°44' W 005°03'5 9.4
2018-Feb-11 11:29N 48°41' W 005°09'4 9.1
2018-Feb-11 11:00N 48°38' W 005°14'5 9.0
2018-Feb-11 10:28N 48°34' W 005°19'4 8.8
2018-Feb-11 10:00N 48°31' W 005°22'4 8.3
2018-Feb-11 09:30N 48°27' W 005°25'5 8.1
2018-Feb-11 08:53N 48°22' W 005°26'4 8.1
2018-Feb-11 08:26N 48°19' W 005°28'4 7.8
2018-Feb-11 07:57N 48°15' W 005°29'4 7.7
2018-Feb-11 07:25N 48°11' W 005°30'  
Track history (hours):
 
Tides and Currents Weather Stations Pressure Air Temp Water Temp Dewpoint Dewpoint Depression Visibility Wind Speed Wind Dir Waves Ship Positions

Arklow Spray

Last reported at 2018-Feb-19 07:26 UTC. Time now 2018-Feb-19 08:15 UTC.
Position N 54°37' W 005°54'.

Length 90 m; draft 4.5 m.

MMSI: 309914000.

Date/timePositionNaut miles runAvg speedWind from/ knotsBaromVisibWave heightAir tempDewpointWater temp
2018-Feb-19 07:26N 54°37' W 005°54'1 2.5
2018-Feb-19 06:59N 54°38' W 005°53'4 8.5
2018-Feb-19 06:30N 54°41' W 005°49'5 9.3
2018-Feb-19 06:00N 54°43' W 005°41'5 9.3
2018-Feb-19 05:30N 54°43' W 005°33'4 8.9
2018-Feb-19 05:00N 54°41' W 005°26'510.3
2018-Feb-19 04:30N 54°37' W 005°23'611.0
2018-Feb-19 04:00N 54°31' W 005°21'510.8
2018-Feb-19 03:30N 54°26' W 005°18'510.2
2018-Feb-19 03:00N 54°21' W 005°19'510.2
2018-Feb-19 02:30N 54°16' W 005°20'6610.0
2018-Feb-18 19:59N 53°11' W 005°33'810.3
2018-Feb-18 19:12N 53°03' W 005°34'2 9.2
2018-Feb-18 19:00N 53°01' W 005°34'5 9.3
2018-Feb-18 18:30N 52°56' W 005°35'5 8.9
2018-Feb-18 17:58N 52°52' W 005°36'4 8.1
2018-Feb-18 17:29N 52°48' W 005°37'4 7.4
2018-Feb-18 16:57N 52°44' W 005°38'127 9.4
2018-Feb-18 03:24N 50°37' W 005°52'410.1
2018-Feb-18 03:00N 50°33' W 005°52'510.1
2018-Feb-18 02:29N 50°28' W 005°52'56 6.7
2018-Feb-17 18:11N 49°59' W 004°38'2 8.2
2018-Feb-17 17:55N 49°60' W 004°35'3 8.4
2018-Feb-17 17:30N 49°60' W 004°29'5 8.6
2018-Feb-17 16:55N 50°01' W 004°22'2810.2
2018-Feb-17 14:13N 50°06' W 003°39'211.7
2018-Feb-17 14:00N 50°06' W 003°35'611.5
2018-Feb-17 13:30N 50°07' W 003°27'611.3
2018-Feb-17 13:00N 50°09' W 003°18'510.8
2018-Feb-17 12:30N 50°10' W 003°10'510.3
2018-Feb-17 12:00N 50°11' W 003°02'5 9.8
2018-Feb-17 11:30N 50°11' W 002°54'5 9.2
2018-Feb-17 11:00N 50°12' W 002°47'102 9.9
2018-Feb-17 00:45N 50°31' W 000°10'310.7
2018-Feb-17 00:30N 50°32' W 000°06'510.2
2018-Feb-17 00:00N 50°33' E 000°01'5 9.7
2018-Feb-16 23:30N 50°34' E 000°09'5 9.2
2018-Feb-16 23:00N 50°35' E 000°16'4 8.6
2018-Feb-16 22:30N 50°36' E 000°22'4 8.3
2018-Feb-16 22:00N 50°38' E 000°29'4 8.4
2018-Feb-16 21:30N 50°39' E 000°35'4 9.0
2018-Feb-16 21:00N 50°42' E 000°41'5 9.7
2018-Feb-16 20:30N 50°44' E 000°47'3211.9
2018-Feb-16 17:48N 51°05' E 001°27'3 9.6
2018-Feb-16 17:30N 51°06' E 001°31'510.9
2018-Feb-16 17:00N 51°10' E 001°37'510.2
2018-Feb-16 16:30N 51°13' E 001°43'5 9.7
2018-Feb-16 16:00N 51°17' E 001°48'4 9.0
2018-Feb-16 15:30N 51°20' E 001°52'4 8.7
2018-Feb-16 15:00N 51°24' E 001°56'4 8.4
2018-Feb-16 14:30N 51°27' E 002°00'4 8.3
2018-Feb-16 14:00N 51°30' E 002°05'4 8.5
2018-Feb-16 13:31N 51°34' E 002°09'5 8.7
2018-Feb-16 12:59N 51°37' E 002°14'6810.1
2018-Feb-16 06:15N 52°21' E 003°39'2 9.2
2018-Feb-16 05:59N 52°22' E 003°43'5 8.9
2018-Feb-16 05:26N 52°24' E 003°50'5 8.6
2018-Feb-16 04:53N 52°24' E 003°58'3 8.5
2018-Feb-16 04:29N 52°25' E 004°03'4 8.4
2018-Feb-16 04:00N 52°26' E 004°10'4 8.2
2018-Feb-16 03:30N 52°27' E 004°16'4 8.0
2018-Feb-16 03:00N 52°28' E 004°23'4 8.4
2018-Feb-16 02:31N 52°28' E 004°30'4 7.8
2018-Feb-16 02:01N 52°28' E 004°36'1 1.4
2018-Feb-16 01:30N 52°28' E 004°37'4 8.5
2018-Feb-16 01:01N 52°26' E 004°43'5 9.9
2018-Feb-16 00:31N 52°25' E 004°51'1 1.5
2018-Feb-15 23:59N 52°24' E 004°51'0 0.0
2018-Feb-15 23:29N 52°24' E 004°51'0 0.0
2018-Feb-15 22:59N 52°24' E 004°51'0 0.0
2018-Feb-15 22:29N 52°24' E 004°51'0 0.0
2018-Feb-15 21:56N 52°24' E 004°51'0 0.0
2018-Feb-15 21:29N 52°24' E 004°51'0 0.0
2018-Feb-15 20:59N 52°24' E 004°51'0 0.0
2018-Feb-15 20:29N 52°24' E 004°51'0 0.0
2018-Feb-15 19:59N 52°24' E 004°51'0 0.0
2018-Feb-15 19:29N 52°24' E 004°51'0 0.3
2018-Feb-15 18:59N 52°24' E 004°51'0 0.0
2018-Feb-15 18:29N 52°24' E 004°51'0 0.0
2018-Feb-15 17:59N 52°24' E 004°51'0 0.0
2018-Feb-15 17:29N 52°24' E 004°51'0 0.0
2018-Feb-15 16:59N 52°24' E 004°51'0 0.0
2018-Feb-15 16:29N 52°24' E 004°51'0 0.0
2018-Feb-15 15:59N 52°24' E 004°51'0 0.0
2018-Feb-15 15:29N 52°24' E 004°51'0 0.0
2018-Feb-15 14:59N 52°24' E 004°51'0 0.7
2018-Feb-15 14:28N 52°24' E 004°52'0 0.0
2018-Feb-15 13:58N 52°24' E 004°52'0 0.0
2018-Feb-15 13:28N 52°24' E 004°52'0 0.0
2018-Feb-15 12:58N 52°24' E 004°52'0 0.0
2018-Feb-15 12:28N 52°24' E 004°52'0 0.0
2018-Feb-15 11:58N 52°24' E 004°52'0 0.0
2018-Feb-15 11:28N 52°24' E 004°52'0 0.0
2018-Feb-15 10:58N 52°24' E 004°52'0 0.0
2018-Feb-15 10:28N 52°24' E 004°52'0 0.0
2018-Feb-15 09:58N 52°24' E 004°52'0 0.0
2018-Feb-15 09:28N 52°24' E 004°52'0 0.0
2018-Feb-15 08:58N 52°24' E 004°52'0 0.0
2018-Feb-15 08:25N 52°24' E 004°52'0 0.0
2018-Feb-15 07:58N 52°24' E 004°52'0 0.0
2018-Feb-15 07:28N 52°24' E 004°52'0 0.0
2018-Feb-15 06:58N 52°24' E 004°52'0 0.0
2018-Feb-15 06:28N 52°24' E 004°52'0 0.0
2018-Feb-15 05:58N 52°24' E 004°52'0 0.0
2018-Feb-15 05:28N 52°24' E 004°52'0 0.0
2018-Feb-15 04:58N 52°24' E 004°52'0 0.0
2018-Feb-15 04:28N 52°24' E 004°52'0 0.0
2018-Feb-15 03:58N 52°24' E 004°52'0 0.0
2018-Feb-15 03:28N 52°24' E 004°52'0 0.0
2018-Feb-15 02:58N 52°24' E 004°52'0 0.0
2018-Feb-15 02:28N 52°24' E 004°52'0 0.0
2018-Feb-15 01:58N 52°24' E 004°52'0 0.0
2018-Feb-15 01:28N 52°24' E 004°52'0 0.0
2018-Feb-15 00:58N 52°24' E 004°52'0 0.0
2018-Feb-15 00:28N 52°24' E 004°52'0 0.0
2018-Feb-14 23:58N 52°24' E 004°52'0 0.0
2018-Feb-14 23:28N 52°24' E 004°52'0 0.0
2018-Feb-14 22:58N 52°24' E 004°52'0 0.0
2018-Feb-14 22:28N 52°24' E 004°52'0 0.0
2018-Feb-14 22:00N 52°24' E 004°52'0 0.0
2018-Feb-14 21:29N 52°24' E 004°52'0 0.0
2018-Feb-14 20:59N 52°24' E 004°52'2 3.4
2018-Feb-14 20:30N 52°25' E 004°50'1 1.4
2018-Feb-14 19:58N 52°25' E 004°49'0 0.0
2018-Feb-14 19:28N 52°25' E 004°49'0 0.0
2018-Feb-14 18:58N 52°25' E 004°49'0 0.0
2018-Feb-14 18:28N 52°25' E 004°49'0 0.0
2018-Feb-14 17:55N 52°25' E 004°49'0 0.0
2018-Feb-14 17:28N 52°25' E 004°49'0 0.0
2018-Feb-14 16:58N 52°25' E 004°49'0 0.0
2018-Feb-14 16:28N 52°25' E 004°49'0 0.0
2018-Feb-14 15:55N 52°25' E 004°49'0 0.0
2018-Feb-14 15:28N 52°25' E 004°49'0 0.0
2018-Feb-14 14:58N 52°25' E 004°49'0 0.0
2018-Feb-14 14:28N 52°25' E 004°49'0 0.0
2018-Feb-14 13:58N 52°25' E 004°49'0 0.0
2018-Feb-14 13:28N 52°25' E 004°49'0 0.1
2018-Feb-14 13:00N 52°25' E 004°49'0 0.1
2018-Feb-14 12:27N 52°25' E 004°49'0 0.0
2018-Feb-14 12:00N 52°25' E 004°49'0 0.0
2018-Feb-14 11:30N 52°25' E 004°49'0 0.0
2018-Feb-14 11:00N 52°25' E 004°49'0 0.0
2018-Feb-14 10:30N 52°25' E 004°49'0 0.0
2018-Feb-14 09:54N 52°25' E 004°49'0 0.0
2018-Feb-14 09:30N 52°25' E 004°49'0 0.0
2018-Feb-14 09:00N 52°25' E 004°49'0 0.0
2018-Feb-14 08:27N 52°25' E 004°49'0 0.0
2018-Feb-14 08:00N 52°25' E 004°49'0 0.0
2018-Feb-14 07:30N 52°25' E 004°49'0 0.0
2018-Feb-14 07:00N 52°25' E 004°49'0 0.0
2018-Feb-14 06:27N 52°25' E 004°49'0 0.0
2018-Feb-14 06:00N 52°25' E 004°49'0 0.0
2018-Feb-14 05:27N 52°25' E 004°49'0 0.0
2018-Feb-14 05:00N 52°25' E 004°49'0 0.0
2018-Feb-14 04:27N 52°25' E 004°49'0 0.0
2018-Feb-14 04:00N 52°25' E 004°49'0 0.0
2018-Feb-14 03:27N 52°25' E 004°49'0 0.0
2018-Feb-14 02:57N 52°25' E 004°49'0 0.0
2018-Feb-14 02:29N 52°25' E 004°49'0 0.0
2018-Feb-14 01:58N 52°25' E 004°49'0 0.0
2018-Feb-14 01:28N 52°25' E 004°49'0 0.0
2018-Feb-14 00:58N 52°25' E 004°49'0 0.0
2018-Feb-14 00:28N 52°25' E 004°49'0 0.0
2018-Feb-13 23:58N 52°25' E 004°49'0 0.0
2018-Feb-13 23:28N 52°25' E 004°49'0 0.0
2018-Feb-13 22:58N 52°25' E 004°49'0 0.0
2018-Feb-13 22:28N 52°25' E 004°49'0 0.0
2018-Feb-13 21:58N 52°25' E 004°49'0 0.7
2018-Feb-13 21:30N 52°25' E 004°49'0 0.1
2018-Feb-13 21:01N 52°25' E 004°49'0 0.1
2018-Feb-13 20:30N 52°25' E 004°49'0 0.0
2018-Feb-13 20:00N 52°25' E 004°49'1 2.8
2018-Feb-13 19:30N 52°26' E 004°46'2 4.5
2018-Feb-13 19:00N 52°26' E 004°43'2 4.4
2018-Feb-13 18:30N 52°28' E 004°40'2 4.4
2018-Feb-13 18:00N 52°28' E 004°36'1 1.2
2018-Feb-13 17:30N 52°28' E 004°35'4 7.3
2018-Feb-13 17:01N 52°28' E 004°30'4 8.4
2018-Feb-13 16:30N 52°26' E 004°23'3 5.9
2018-Feb-13 16:01N 52°23' E 004°21'1 1.9
2018-Feb-13 15:31N 52°23' E 004°20'1 2.4
2018-Feb-13 15:01N 52°24' E 004°19'1 1.8
2018-Feb-13 14:31N 52°25' E 004°19'1 1.6
2018-Feb-13 14:00N 52°26' E 004°18'1 1.4
2018-Feb-13 13:31N 52°26' E 004°17'1 1.4
2018-Feb-13 13:01N 52°26' E 004°16'1 1.5
2018-Feb-13 12:30N 52°27' E 004°15'2 4.2
2018-Feb-13 12:00N 52°27' E 004°12'2 4.4
2018-Feb-13 11:29N 52°26' E 004°08'2 4.3
2018-Feb-13 11:00N 52°26' E 004°05'2 3.9
2018-Feb-13 10:30N 52°25' E 004°02'2 3.5
2018-Feb-13 10:00N 52°25' E 003°59'2 3.5
2018-Feb-13 09:31N 52°24' E 003°56'2 3.2
2018-Feb-13 08:57N 52°24' E 003°53'1 3.0
2018-Feb-13 08:29N 52°24' E 003°51'2 3.2
2018-Feb-13 07:55N 52°23' E 003°48'2 3.5
2018-Feb-13 07:23N 52°22' E 003°45'20 8.7
2018-Feb-13 05:07N 52°11' E 003°19'1 9.8
2018-Feb-13 04:59N 52°11' E 003°17'5 9.8
2018-Feb-13 04:30N 52°08' E 003°11'5 9.9
2018-Feb-13 04:00N 52°04' E 003°05'4110.8
2018-Feb-13 00:13N 51°33' E 002°22'311.5
2018-Feb-12 23:59N 51°31' E 002°19'511.2
2018-Feb-12 23:30N 51°27' E 002°14'611.2
2018-Feb-12 23:00N 51°22' E 002°10'611.3
2018-Feb-12 22:30N 51°17' E 002°06'611.6
2018-Feb-12 22:01N 51°13' E 001°60'611.4
2018-Feb-12 21:31N 51°09' E 001°52'611.4
2018-Feb-12 21:00N 51°06' E 001°45'611.1
2018-Feb-12 20:30N 51°02' E 001°39'510.6
2018-Feb-12 20:01N 50°58' E 001°34'610.0
2018-Feb-12 19:24N 50°53' E 001°28'4 9.3
2018-Feb-12 19:00N 50°49' E 001°26'5 8.7
2018-Feb-12 18:29N 50°45' E 001°23'115 9.3
2018-Feb-12 06:06N 50°04' W 001°26'111.6
2018-Feb-12 06:01N 50°03' W 001°27'611.8
2018-Feb-12 05:30N 50°02' W 001°36'611.7
2018-Feb-12 05:00N 50°00' W 001°45'611.4
2018-Feb-12 04:30N 49°59' W 001°53'137 8.7
2018-Feb-11 12:48N 48°48' W 004°54'3 9.5
2018-Feb-11 12:30N 48°47' W 004°57'5 9.3
2018-Feb-11 12:00N 48°44' W 005°03'5 9.4
2018-Feb-11 11:29N 48°41' W 005°09'4 9.1
2018-Feb-11 11:00N 48°38' W 005°14'5 9.0
2018-Feb-11 10:28N 48°34' W 005°19'4 8.8
2018-Feb-11 10:00N 48°31' W 005°22'4 8.3
2018-Feb-11 09:30N 48°27' W 005°25'5 8.1
2018-Feb-11 08:53N 48°22' W 005°26'4 8.1
2018-Feb-11 08:26N 48°19' W 005°28'4 7.8
2018-Feb-11 07:57N 48°15' W 005°29'4 7.7
2018-Feb-11 07:25N 48°11' W 005°30'  

Dump ship's entire track history